Terminal Aerodrome Forecast
Issued by NWS

Home | Current Version | Previous Version | Text Only | Print | Product List | Glossary On
Versions: 1 2 3 4 5 6 7 8 9 10 11 12 13 14 15 16 17 18 19 20 21 22 23 24 25 26 27 28 29 30 31 32
000
FTUS43 KDLH 251734
TAFHIB
TAF
KHIB 251734Z 2518/2618 33012G22KT P6SM BKN020
     FM252000 33013G20KT P6SM VCSH BKN040
     FM260100 33008KT P6SM VCSH BKN070
     FM260300 32003KT P6SM SCT090=

USA.gov is the U.S. government's official web portal to all federal, state and local government web resources and services.